createdAt,value
2023-05-05T00:00:39.404Z,24.40
2023-05-05T00:05:39.434Z,25.70
2023-05-05T00:10:40.227Z,3.50
2023-05-05T00:15:44.617Z,12.40
2023-05-05T00:25:39.728Z,7.20
2023-05-05T00:35:39.649Z,18.30
2023-05-05T00:40:39.517Z,20.80
2023-05-05T00:45:41.800Z,21.10
2023-05-05T00:50:42.851Z,20.90
2023-05-05T01:00:39.604Z,19.60
2023-05-05T01:05:49.570Z,18.70
2023-05-05T01:10:46.265Z,17.70
2023-05-05T01:15:47.052Z,16.80
2023-05-05T01:20:58.363Z,16.90
2023-05-05T01:25:59.539Z,16.20
2023-05-05T01:35:44.611Z,16.80
2023-05-05T01:40:47.054Z,18.20
2023-05-05T01:45:42.281Z,18.40
2023-05-05T02:00:40.895Z,20.00
2023-05-05T02:05:42.129Z,20.00
2023-05-05T02:10:39.846Z,19.60
2023-05-05T02:15:41.394Z,20.10
2023-05-05T02:20:40.140Z,20.30
2023-05-05T02:30:41.344Z,20.70
2023-05-05T02:35:41.472Z,21.20
2023-05-05T02:50:39.935Z,21.30
2023-05-05T03:00:44.635Z,22.10
2023-05-05T03:10:56.388Z,22.20
2023-05-05T03:15:44.929Z,22.10
2023-05-05T03:20:41.022Z,21.70
2023-05-05T03:25:41.710Z,23.20
2023-05-05T03:30:40.461Z,24.30
2023-05-05T03:35:39.914Z,25.00
2023-05-05T03:45:40.053Z,24.70
2023-05-05T03:50:40.171Z,24.30
2023-05-05T03:55:40.155Z,23.80
2023-05-05T04:00:40.011Z,24.40
2023-05-05T04:05:40.778Z,25.60
2023-05-05T04:15:43.851Z,25.20
2023-05-05T04:20:40.219Z,25.50
2023-05-05T04:25:40.203Z,25.20
2023-05-05T04:30:40.120Z,26.00
2023-05-05T04:35:40.113Z,26.10
2023-05-05T04:40:40.374Z,26.10
2023-05-05T04:45:40.151Z,26.10
2023-05-05T04:55:40.405Z,26.10
2023-05-05T05:00:40.214Z,26.10
2023-05-05T05:05:40.239Z,26.10
2023-05-05T05:15:40.957Z,26.10
2023-05-05T05:20:40.332Z,26.10
2023-05-05T05:25:41.548Z,26.10
2023-05-05T05:30:40.316Z,25.90
2023-05-05T05:40:40.404Z,24.80
2023-05-05T05:45:40.516Z,25.30
2023-05-05T05:50:40.635Z,24.40
2023-05-05T05:55:40.357Z,22.90
2023-05-05T06:00:40.390Z,21.60
2023-05-05T06:05:40.665Z,20.90
2023-05-05T06:15:40.421Z,20.00
2023-05-05T06:20:40.587Z,19.80
2023-05-05T06:25:40.401Z,18.80
2023-05-05T06:30:40.395Z,17.90
2023-05-05T06:35:40.442Z,17.80
2023-05-05T06:40:41.084Z,18.30
2023-05-05T06:45:42.423Z,19.10
2023-05-05T06:50:41.141Z,19.10
2023-05-05T06:55:45.228Z,19.10
2023-05-05T07:00:41.169Z,17.80
2023-05-05T07:05:41.086Z,18.50
2023-05-05T07:15:45.209Z,18.50
2023-05-05T07:20:41.174Z,17.70
2023-05-05T07:25:40.755Z,18.10
2023-05-05T07:30:40.550Z,16.80
2023-05-05T07:35:40.590Z,12.90
2023-05-05T07:40:40.746Z,10.90
2023-05-05T07:45:40.702Z,10.80
2023-05-05T07:55:40.866Z,11.60
2023-05-05T08:00:42.707Z,9.40
2023-05-05T08:05:41.029Z,11.10
2023-05-05T08:10:40.674Z,8.20
2023-05-05T08:15:40.688Z,7.60
2023-05-05T08:35:41.700Z,3.10
2023-05-05T08:40:41.497Z,25.70
2023-05-05T08:50:46.962Z,23.50
2023-05-05T08:55:49.881Z,20.40
2023-05-05T09:00:42.081Z,19.90
2023-05-05T09:05:42.381Z,18.80
2023-05-05T09:15:41.502Z,19.50
2023-05-05T09:20:41.007Z,15.80
2023-05-05T09:25:43.542Z,19.70
2023-05-05T09:30:43.117Z,22.90
2023-05-05T09:35:50.152Z,24.60
2023-05-05T09:40:50.241Z,22.60
2023-05-05T09:45:41.314Z,26.70
2023-05-05T09:50:42.723Z,26.30
2023-05-05T10:00:40.986Z,24.80
2023-05-05T10:05:52.124Z,25.90
2023-05-05T10:10:52.106Z,24.40
2023-05-05T10:15:43.733Z,24.10
2023-05-05T10:20:42.907Z,22.60
2023-05-05T10:30:45.014Z,21.90
2023-05-05T10:35:43.363Z,22.50
2023-05-05T10:45:41.892Z,24.60
2023-05-05T10:50:50.610Z,25.10
2023-05-05T10:56:01.002Z,26.10
2023-05-05T11:00:41.174Z,26.30
2023-05-05T11:10:43.654Z,25.50
2023-05-05T11:15:41.153Z,25.00
2023-05-05T11:35:54.709Z,25.80
2023-05-05T11:40:44.705Z,25.10
2023-05-05T11:50:41.337Z,27.40
2023-05-05T11:55:41.250Z,5.40
2023-05-05T12:00:41.370Z,5.20
2023-05-05T12:05:41.325Z,9.00
2023-05-05T12:10:41.325Z,11.30
2023-05-05T12:25:41.360Z,10.00
2023-05-05T12:30:41.412Z,10.20
2023-05-05T12:35:41.511Z,12.00
2023-05-05T12:40:43.673Z,13.10
2023-05-05T12:45:41.484Z,12.30
2023-05-05T12:50:41.395Z,9.20
2023-05-05T13:00:41.526Z,10.50
2023-05-05T13:05:41.445Z,11.60
2023-05-05T13:10:55.231Z,11.70
2023-05-05T13:20:41.466Z,9.50
2023-05-05T13:25:41.593Z,11.80
2023-05-05T13:30:41.819Z,10.20
2023-05-05T13:35:41.563Z,9.50
2023-05-05T13:40:41.567Z,11.90
2023-05-05T13:45:42.119Z,12.70
2023-05-05T13:50:41.571Z,9.60
2023-05-05T13:55:42.263Z,10.70
2023-05-05T14:00:41.908Z,10.60
2023-05-05T14:05:41.769Z,10.70
2023-05-05T14:15:41.723Z,15.20
2023-05-05T14:20:41.738Z,16.20
2023-05-05T14:25:41.707Z,18.40
2023-05-05T14:30:41.915Z,19.20
2023-05-05T14:35:41.945Z,20.20
2023-05-05T14:40:41.702Z,19.50
2023-05-05T14:45:43.149Z,18.80
2023-05-05T14:50:41.805Z,17.90
2023-05-05T15:00:41.819Z,16.40
2023-05-05T15:05:41.775Z,16.30
2023-05-05T15:15:42.054Z,12.00
2023-05-05T15:20:42.125Z,13.70
2023-05-05T15:25:41.963Z,14.00
2023-05-05T15:30:41.879Z,15.80
2023-05-05T15:50:41.935Z,16.00
2023-05-05T15:55:42.022Z,14.60
2023-05-05T16:00:42.052Z,17.00
2023-05-05T16:05:41.934Z,15.80
2023-05-05T16:10:41.999Z,14.60
2023-05-05T16:15:41.966Z,10.40
2023-05-05T16:20:42.013Z,10.80
2023-05-05T16:25:42.009Z,15.60
2023-05-05T16:30:42.261Z,13.00
2023-05-05T16:35:44.515Z,9.00
2023-05-05T16:40:42.021Z,5.90
2023-05-05T16:45:42.449Z,23.00
2023-05-05T16:50:42.114Z,22.90
2023-05-05T17:00:45.635Z,23.80
2023-05-05T17:05:43.101Z,24.40
2023-05-05T17:10:43.363Z,23.20
2023-05-05T17:20:42.217Z,25.30
2023-05-05T17:25:42.130Z,26.50
2023-05-05T17:30:42.214Z,26.20
2023-05-05T17:40:42.179Z,24.80
2023-05-05T17:45:42.341Z,24.00
2023-05-05T17:55:43.748Z,24.40
2023-05-05T18:00:42.217Z,24.50
2023-05-05T18:10:42.238Z,24.10
2023-05-05T18:15:42.263Z,24.40
2023-05-05T18:20:42.933Z,25.50
2023-05-05T18:30:42.401Z,24.80
2023-05-05T18:35:42.454Z,25.90
2023-05-05T18:40:42.381Z,26.50
2023-05-05T18:45:42.396Z,3.40
2023-05-05T18:50:42.368Z,3.40
2023-05-05T18:55:42.797Z,6.00
2023-05-05T19:00:42.556Z,4.80
2023-05-05T19:05:39.723Z,4.80
2023-05-05T19:05:41.079Z,4.80
2023-05-05T19:05:41.400Z,4.80
2023-05-05T19:12:34.823Z,4.60
2023-05-05T19:12:35.400Z,4.60
2023-05-05T19:12:36.187Z,4.60
2023-05-05T19:15:42.535Z,6.90
2023-05-05T19:25:43.202Z,10.60
2023-05-05T19:30:42.520Z,12.00
2023-05-05T19:40:42.662Z,13.80
2023-05-05T19:45:42.520Z,14.50
2023-05-05T19:50:42.532Z,16.60
2023-05-05T19:55:42.573Z,16.60
2023-05-05T20:10:42.545Z,15.50
2023-05-05T20:15:42.610Z,14.80
2023-05-05T20:25:42.648Z,17.70
2023-05-05T20:30:42.681Z,17.70
2023-05-05T20:35:42.705Z,18.30
2023-05-05T20:45:43.228Z,19.50
2023-05-05T20:50:42.953Z,19.60
2023-05-05T20:55:42.728Z,20.10
2023-05-05T21:05:43.614Z,20.80
2023-05-05T21:15:42.737Z,22.00
2023-05-05T21:20:42.751Z,22.10
2023-05-05T21:25:42.783Z,21.70
2023-05-05T21:30:42.822Z,22.10
2023-05-05T21:35:42.879Z,22.90
2023-05-05T21:40:42.905Z,22.40
2023-05-05T21:45:42.848Z,22.30
2023-05-05T21:55:43.103Z,22.90
2023-05-05T22:05:42.998Z,22.60
2023-05-05T22:15:47.042Z,23.30
2023-05-05T22:20:42.947Z,23.50
2023-05-05T22:25:43.531Z,24.60
2023-05-05T22:30:43.016Z,24.60
2023-05-05T22:50:43.250Z,26.10
2023-05-05T22:55:43.249Z,26.10
2023-05-05T23:00:43.254Z,26.10
2023-05-05T23:05:43.068Z,26.10
2023-05-05T23:15:43.245Z,26.10
2023-05-05T23:20:43.115Z,26.10
2023-05-05T23:25:43.940Z,26.10
2023-05-05T23:55:43.381Z,26.10
